createdAt,value
2022-09-11T00:01:43.160Z,101707.03
2022-09-11T00:04:11.963Z,101712.31
2022-09-11T00:06:40.976Z,101716.72
2022-09-11T00:09:09.554Z,101711.44
2022-09-11T00:11:41.366Z,101710.53
2022-09-11T00:14:11.940Z,101708.78
2022-09-11T00:16:44.859Z,101714.06
2022-09-11T00:19:16.610Z,101715.81
2022-09-11T00:21:45.363Z,101712.28
2022-09-11T00:24:15.366Z,101707.00
2022-09-11T00:26:47.802Z,101714.03
2022-09-11T00:29:15.844Z,101707.84
2022-09-11T00:31:45.332Z,101714.91
2022-09-11T00:34:13.737Z,101706.13
2022-09-11T00:36:43.149Z,101711.38
2022-09-11T00:39:12.105Z,101706.06
2022-09-11T00:41:44.661Z,101712.22
2022-09-11T00:45:00.802Z,101710.44
2022-09-11T00:47:32.158Z,101716.56
2022-09-11T00:50:10.956Z,101719.19
2022-09-11T00:52:43.278Z,101714.75
2022-09-11T00:55:16.577Z,101720.91
2022-09-11T00:57:48.431Z,101720.00
2022-09-11T01:00:17.283Z,101713.81
2022-09-11T01:02:50.641Z,101723.50
2022-09-11T01:05:22.369Z,101727.91
2022-09-11T01:07:54.349Z,101725.25
2022-09-11T01:10:31.855Z,101724.38
2022-09-11T01:13:10.057Z,101717.31
2022-09-11T01:15:47.281Z,101720.84
2022-09-11T01:18:26.818Z,101718.22
2022-09-11T01:21:13.069Z,101710.31
2022-09-11T01:24:03.144Z,101715.66
2022-09-11T01:26:55.956Z,101720.06
2022-09-11T01:29:30.518Z,101723.59
2022-09-11T01:32:06.746Z,101713.91
2022-09-11T01:34:38.494Z,101721.00
2022-09-11T01:37:13.834Z,101715.69
2022-09-11T01:39:46.271Z,101720.97
2022-09-11T01:42:23.049Z,101711.28
2022-09-11T01:44:56.251Z,101711.31
2022-09-11T01:47:26.079Z,101722.75
2022-09-11T01:50:01.498Z,101714.84
2022-09-11T01:52:35.197Z,101713.09
2022-09-11T01:55:10.880Z,101718.38
2022-09-11T01:57:43.838Z,101721.94
2022-09-11T02:00:14.968Z,101728.09
2022-09-11T02:02:48.168Z,101722.81
2022-09-11T02:05:20.468Z,101721.94
2022-09-11T02:07:54.484Z,101726.34
2022-09-11T02:10:29.191Z,101727.22
2022-09-11T02:13:06.598Z,101730.72
2022-09-11T02:15:44.815Z,101730.72
2022-09-11T02:18:21.602Z,101730.69
2022-09-11T02:20:51.431Z,101735.97
2022-09-11T02:23:20.026Z,101733.31
2022-09-11T02:25:49.100Z,101737.75
2022-09-11T02:28:18.256Z,101736.03
2022-09-11T02:30:47.947Z,101739.53
2022-09-11T02:33:30.998Z,101735.13
2022-09-11T02:36:36.635Z,101739.53
2022-09-11T02:39:25.538Z,101730.75
2022-09-11T02:42:20.976Z,101737.78
2022-09-11T02:44:58.609Z,101734.25
2022-09-11T02:47:43.752Z,101731.63
2022-09-11T02:50:23.651Z,101735.16
2022-09-11T02:53:02.890Z,101731.63
2022-09-11T02:55:46.887Z,101728.13
2022-09-11T02:58:22.098Z,101733.41
2022-09-11T03:00:50.416Z,101727.28
2022-09-11T03:03:21.153Z,101742.25
2022-09-11T03:05:49.299Z,101739.59
2022-09-11T03:08:18.543Z,101739.59
2022-09-11T03:10:46.976Z,101743.97
2022-09-11T03:13:15.283Z,101741.34
2022-09-11T03:15:43.455Z,101739.63
2022-09-11T03:18:14.588Z,101738.75
2022-09-11T03:20:47.322Z,101742.25
2022-09-11T03:23:15.512Z,101737.84
2022-09-11T03:25:43.559Z,101743.16
2022-09-11T03:28:12.072Z,101740.50
2022-09-11T03:30:42.004Z,101744.03
2022-09-11T03:33:10.239Z,101747.53
2022-09-11T03:35:38.459Z,101751.94
2022-09-11T03:38:07.874Z,101751.94
2022-09-11T03:40:35.961Z,101753.72
2022-09-11T03:43:04.131Z,101760.75
2022-09-11T03:45:32.355Z,101759.00
2022-09-11T03:48:01.196Z,101766.88
2022-09-11T03:50:29.282Z,101768.66
2022-09-11T03:52:57.362Z,101769.53
2022-09-11T03:55:27.245Z,101774.78
2022-09-11T03:57:55.344Z,101768.66
2022-09-11T04:00:23.478Z,101772.19
2022-09-11T04:02:51.786Z,101766.03
2022-09-11T04:05:20.080Z,101773.06
2022-09-11T04:07:48.901Z,101773.06
2022-09-11T04:10:17.456Z,101778.31
2022-09-11T04:12:46.960Z,101778.31
2022-09-11T04:15:15.455Z,101780.94
2022-09-11T04:17:43.522Z,101780.94
2022-09-11T04:20:12.488Z,101780.09
2022-09-11T04:22:41.554Z,101780.06
2022-09-11T04:25:11.104Z,101775.69
2022-09-11T04:27:39.570Z,101779.19
2022-09-11T04:30:10.941Z,101778.31
2022-09-11T04:32:39.016Z,101788.88
2022-09-11T04:35:08.455Z,101793.25
2022-09-11T04:37:36.609Z,101793.25
2022-09-11T04:40:05.466Z,101799.41
2022-09-11T04:42:33.532Z,101794.13
2022-09-11T04:45:01.603Z,101804.69
2022-09-11T04:47:31.252Z,101803.78
2022-09-11T04:49:59.327Z,101803.78
2022-09-11T04:52:27.825Z,101806.44
2022-09-11T04:54:55.971Z,101809.97
2022-09-11T04:57:24.030Z,101807.34
2022-09-11T04:59:52.709Z,101811.72
2022-09-11T05:02:21.943Z,101802.06
2022-09-11T05:04:51.461Z,101809.09
2022-09-11T05:07:19.784Z,101807.34
2022-09-11T05:09:48.153Z,101814.38
2022-09-11T05:12:17.667Z,101810.88
2022-09-11T05:14:45.758Z,101816.13
2022-09-11T05:17:14.393Z,101822.28
2022-09-11T05:19:43.227Z,101823.16
2022-09-11T05:22:17.823Z,101826.69
2022-09-11T05:24:47.091Z,101828.47
2022-09-11T05:27:15.134Z,101831.97
2022-09-11T05:29:44.136Z,101835.47
2022-09-11T05:32:13.167Z,101840.78
2022-09-11T05:34:41.315Z,101846.06
2022-09-11T05:37:09.416Z,101841.63
2022-09-11T05:39:38.898Z,101839.00
2022-09-11T05:42:07.481Z,101844.28
2022-09-11T05:44:37.058Z,101846.06
2022-09-11T05:47:06.199Z,101844.31
2022-09-11T05:49:36.902Z,101844.28
2022-09-11T05:52:05.154Z,101850.47
2022-09-11T05:54:33.295Z,101844.31
2022-09-11T05:57:07.389Z,101848.72
2022-09-11T05:59:36.596Z,101857.50
2022-09-11T06:02:04.977Z,101865.44
2022-09-11T06:04:34.107Z,101868.97
2022-09-11T06:07:02.179Z,101871.56
2022-09-11T06:09:30.313Z,101876.00
2022-09-11T06:11:58.470Z,101870.72
2022-09-11T06:14:27.895Z,101870.69
2022-09-11T06:16:57.287Z,101875.09
2022-09-11T06:19:25.478Z,101883.88
2022-09-11T06:21:53.541Z,101878.59
2022-09-11T06:24:21.598Z,101879.50
2022-09-11T06:26:49.800Z,101888.31
2022-09-11T06:29:17.940Z,101884.78
2022-09-11T06:31:49.136Z,101888.25
2022-09-11T06:34:17.213Z,101886.44
2022-09-11T06:36:48.664Z,101893.50
2022-09-11T06:39:22.738Z,101886.44
2022-09-11T06:41:51.240Z,101885.50
2022-09-11T06:44:19.447Z,101896.94
2022-09-11T06:46:48.899Z,101886.34
2022-09-11T06:49:17.001Z,101896.00
2022-09-11T06:51:45.103Z,101893.31
2022-09-11T06:54:13.175Z,101900.31
2022-09-11T06:56:41.229Z,101891.44
2022-09-11T06:59:10.145Z,101901.97
2022-09-11T07:01:39.652Z,101899.31
2022-09-11T07:04:10.346Z,101896.59
2022-09-11T07:06:38.561Z,101899.16
2022-09-11T07:09:06.690Z,101904.44
2022-09-11T07:11:36.393Z,101896.41
2022-09-11T07:14:06.326Z,101896.38
2022-09-11T07:16:35.240Z,101888.34
2022-09-11T07:19:04.302Z,101894.47
2022-09-11T07:21:35.534Z,101891.72
2022-09-11T07:24:04.625Z,101892.50
2022-09-11T07:26:32.732Z,101887.09
2022-09-11T07:29:01.966Z,101886.94
2022-09-11T07:31:33.067Z,101886.72
2022-09-11T07:34:02.092Z,101891.91
2022-09-11T07:36:33.577Z,101898.88
2022-09-11T07:39:03.455Z,101896.06
2022-09-11T07:41:31.850Z,101891.47
2022-09-11T07:44:01.536Z,101898.38
2022-09-11T07:46:31.298Z,101903.53
2022-09-11T07:48:59.931Z,101905.16
2022-09-11T07:51:28.131Z,101897.88
2022-09-11T07:54:00.088Z,101904.78
2022-09-11T07:56:29.269Z,101901.91
2022-09-11T07:58:58.163Z,101907.03
2022-09-11T08:01:29.660Z,101893.53
2022-09-11T08:04:00.417Z,101902.22
2022-09-11T08:06:31.420Z,101903.75
2022-09-11T08:09:03.692Z,101907.09
2022-09-11T08:11:35.133Z,101903.38
2022-09-11T08:14:07.333Z,101911.16
2022-09-11T08:16:36.267Z,101910.13
2022-09-11T08:19:05.049Z,101913.75
2022-09-11T08:21:33.745Z,101916.59
2022-09-11T08:24:04.066Z,101922.88
2022-09-11T08:26:32.726Z,101930.78
2022-09-11T08:29:01.954Z,101926.13
2022-09-11T08:31:30.655Z,101920.41
2022-09-11T08:33:58.815Z,101922.59
2022-09-11T08:36:27.564Z,101923.66
2022-09-11T08:38:56.279Z,101924.00
2022-09-11T08:41:37.149Z,101926.00
2022-09-11T08:44:15.249Z,101917.53
2022-09-11T08:46:47.627Z,101926.88
2022-09-11T08:49:24.642Z,101926.38
2022-09-11T08:51:54.991Z,101932.25
2022-09-11T08:54:29.604Z,101932.09
2022-09-11T08:57:12.581Z,101930.25
2022-09-11T09:00:08.082Z,101935.53
2022-09-11T09:03:09.544Z,101942.25
2022-09-11T09:05:47.236Z,101939.94
2022-09-11T09:08:40.361Z,101944.03
2022-09-11T09:11:22.751Z,101946.31
2022-09-11T09:14:14.476Z,101945.94
2022-09-11T09:16:52.109Z,101944.00
2022-09-11T09:19:25.774Z,101947.28
2022-09-11T09:22:07.129Z,101944.38
2022-09-11T09:24:42.427Z,101945.19
2022-09-11T09:27:20.088Z,101945.19
2022-09-11T09:29:54.749Z,101950.72
2022-09-11T09:32:30.215Z,101950.91
2022-09-11T09:35:04.132Z,101938.59
2022-09-11T09:37:32.171Z,101952.06
2022-09-11T09:40:10.313Z,101960.22
2022-09-11T09:43:18.021Z,101951.50
2022-09-11T09:46:09.056Z,101955.22
2022-09-11T09:48:40.724Z,101957.00
2022-09-11T09:51:14.219Z,101955.16
2022-09-11T09:53:46.794Z,101953.22
2022-09-11T09:56:19.205Z,101955.78
2022-09-11T09:59:00.891Z,101959.28
2022-09-11T10:01:50.073Z,101955.81
2022-09-11T10:04:22.857Z,101955.88
2022-09-11T10:06:54.157Z,101962.34
2022-09-11T10:09:26.323Z,101950.06
2022-09-11T10:11:58.573Z,101952.84
2022-09-11T10:14:49.748Z,101956.31
2022-09-11T10:17:24.352Z,101955.16
2022-09-11T10:19:57.033Z,101957.41
2022-09-11T10:22:29.650Z,101959.44
2022-09-11T10:25:11.844Z,101955.16
2022-09-11T10:28:01.772Z,101956.41
2022-09-11T10:30:36.692Z,101951.34
2022-09-11T10:33:17.951Z,101947.34
2022-09-11T10:35:54.153Z,101946.31
2022-09-11T10:38:36.934Z,101943.47
2022-09-11T10:41:19.158Z,101952.78
2022-09-11T10:43:53.956Z,101946.06
2022-09-11T10:46:41.452Z,101953.50
2022-09-11T10:49:20.162Z,101944.88
2022-09-11T10:52:05.339Z,101945.28
2022-09-11T10:54:52.184Z,101950.53
2022-09-11T10:57:25.836Z,101955.81
2022-09-11T11:00:07.033Z,101946.34
2022-09-11T11:02:38.576Z,101951.09
2022-09-11T11:05:14.894Z,101954.94
2022-09-11T11:08:19.971Z,101952.94
2022-09-11T11:11:08.320Z,101949.84
2022-09-11T11:13:57.848Z,101952.13
2022-09-11T11:16:39.599Z,101956.91
2022-09-11T11:19:40.929Z,101961.06
2022-09-11T11:22:26.570Z,101957.09
2022-09-11T11:25:08.808Z,101955.63
2022-09-11T11:28:34.249Z,101961.28
2022-09-11T11:31:18.155Z,101955.28
2022-09-11T11:34:10.402Z,101952.75
2022-09-11T11:36:46.117Z,101954.56
2022-09-11T11:39:25.148Z,101964.38
2022-09-11T11:42:07.659Z,101959.97
2022-09-11T11:44:41.788Z,101965.47
2022-09-11T11:47:11.710Z,101970.22
2022-09-11T11:49:54.918Z,101970.00
2022-09-11T11:52:47.405Z,101971.41
2022-09-11T11:55:21.643Z,101969.69
2022-09-11T11:58:01.395Z,101966.84
2022-09-11T12:00:31.621Z,101971.91
2022-09-11T12:03:07.423Z,101970.59
2022-09-11T12:05:37.605Z,101963.94
2022-09-11T12:08:13.563Z,101961.75
2022-09-11T12:10:48.763Z,101955.84
2022-09-11T12:13:20.138Z,101953.59
2022-09-11T12:16:13.632Z,101956.69
2022-09-11T12:18:43.368Z,101961.63
2022-09-11T12:21:42.007Z,101966.25
2022-09-11T12:24:17.835Z,101969.09
2022-09-11T12:26:47.558Z,101976.38
2022-09-11T12:29:54.908Z,101970.09
2022-09-11T12:32:41.882Z,101968.50
2022-09-11T12:35:21.650Z,101968.25
2022-09-11T12:38:01.056Z,101970.69
2022-09-11T12:40:37.640Z,101959.88
2022-09-11T12:43:32.872Z,101962.34
2022-09-11T12:46:01.976Z,101962.53
2022-09-11T12:48:38.672Z,101960.47
2022-09-11T12:51:19.281Z,101952.56
2022-09-11T12:53:51.398Z,101953.25
2022-09-11T12:56:22.637Z,101948.31
2022-09-11T12:58:58.685Z,101954.41
2022-09-11T13:01:31.533Z,101945.72
2022-09-11T13:04:04.814Z,101937.97
2022-09-11T13:06:43.887Z,101930.34
2022-09-11T13:09:21.634Z,101931.50
2022-09-11T13:11:53.098Z,101931.38
2022-09-11T13:14:49.472Z,101933.94
2022-09-11T13:17:26.116Z,101927.38
2022-09-11T13:19:59.553Z,101927.22
2022-09-11T13:22:31.242Z,101921.81
2022-09-11T13:25:10.963Z,101920.66
2022-09-11T13:27:41.108Z,101920.25
2022-09-11T13:30:15.297Z,101922.25
2022-09-11T13:32:45.058Z,101918.97
2022-09-11T13:35:17.986Z,101924.25
2022-09-11T13:37:54.439Z,101922.25
2022-09-11T13:40:29.615Z,101918.75
2022-09-11T13:42:58.530Z,101919.97
2022-09-11T13:45:28.850Z,101909.34
2022-09-11T13:47:58.353Z,101910.66
2022-09-11T13:50:27.899Z,101906.06
2022-09-11T13:52:56.742Z,101900.44
2022-09-11T13:55:27.805Z,101908.78
2022-09-11T13:57:58.728Z,101891.44
2022-09-11T14:00:46.136Z,101891.13
2022-09-11T14:03:24.471Z,101891.88
2022-09-11T14:05:55.227Z,101895.06
2022-09-11T14:08:34.248Z,101883.56
2022-09-11T14:11:10.428Z,101878.28
2022-09-11T14:13:45.576Z,101872.88
2022-09-11T14:16:25.302Z,101877.16
2022-09-11T14:18:59.726Z,101872.22
2022-09-11T14:21:35.933Z,101868.72
2022-09-11T14:24:07.225Z,101867.91
2022-09-11T14:26:42.869Z,101855.84
2022-09-11T14:29:25.447Z,101854.31
2022-09-11T14:32:04.344Z,101845.72
2022-09-11T14:34:32.644Z,101854.81
2022-09-11T14:37:08.129Z,101850.69
2022-09-11T14:39:40.235Z,101847.56
2022-09-11T14:42:10.344Z,101844.44
2022-09-11T14:44:41.220Z,101837.59
2022-09-11T14:47:17.165Z,101845.13
2022-09-11T14:49:46.112Z,101839.66
2022-09-11T14:52:17.078Z,101837.78
2022-09-11T14:54:46.413Z,101844.03
2022-09-11T14:57:20.602Z,101836.78
2022-09-11T14:59:49.264Z,101836.84
2022-09-11T15:02:21.230Z,101833.91
2022-09-11T15:04:49.998Z,101832.81
2022-09-11T15:07:19.752Z,101831.41
2022-09-11T15:09:48.157Z,101827.16
2022-09-11T15:12:17.220Z,101835.91
2022-09-11T15:14:56.342Z,101829.03
2022-09-11T15:17:31.495Z,101827.63
2022-09-11T15:20:00.989Z,101826.91
2022-09-11T15:22:31.206Z,101826.41
2022-09-11T15:25:00.015Z,101817.75
2022-09-11T15:27:28.205Z,101824.63
2022-09-11T15:29:56.663Z,101817.34
2022-09-11T15:32:26.286Z,101810.75
2022-09-11T15:34:59.761Z,101811.91
2022-09-11T15:37:27.870Z,101816.34
2022-09-11T15:39:55.957Z,101812.19
2022-09-11T15:42:24.456Z,101808.25
2022-09-11T15:44:52.834Z,101805.50
2022-09-11T15:47:22.275Z,101803.34
2022-09-11T15:49:51.737Z,101805.50
2022-09-11T15:52:20.123Z,101802.53
2022-09-11T15:54:48.854Z,101800.56
2022-09-11T15:57:17.287Z,101808.16
2022-09-11T15:59:45.589Z,101803.63
2022-09-11T16:02:14.109Z,101802.41
2022-09-11T16:04:42.262Z,101797.69
2022-09-11T16:07:11.791Z,101798.94
2022-09-11T16:09:40.026Z,101803.06
2022-09-11T16:12:08.663Z,101808.72
2022-09-11T16:14:38.778Z,101802.03
2022-09-11T16:17:09.397Z,101798.06
2022-09-11T16:19:38.635Z,101797.53
2022-09-11T16:22:08.804Z,101799.28
2022-09-11T16:24:42.375Z,101791.56
2022-09-11T16:27:11.892Z,101792.22
2022-09-11T16:32:29.383Z,101795.22
2022-09-11T16:34:59.530Z,101795.38
2022-09-11T16:37:29.252Z,101801.25
2022-09-11T16:39:59.578Z,101802.00
2022-09-11T16:42:27.701Z,101800.22
2022-09-11T16:44:56.180Z,101799.94
2022-09-11T16:47:24.818Z,101794.66
2022-09-11T16:50:09.314Z,101802.44
2022-09-11T16:52:39.006Z,101791.38
2022-09-11T16:55:10.552Z,101794.41
2022-09-11T16:57:39.370Z,101792.91
2022-09-11T17:00:11.168Z,101797.53
2022-09-11T17:02:39.433Z,101794.84
2022-09-11T17:05:09.680Z,101797.22
2022-09-11T17:07:38.564Z,101791.63
2022-09-11T17:10:09.590Z,101787.63
2022-09-11T17:12:37.641Z,101791.50
2022-09-11T17:15:07.563Z,101794.34
2022-09-11T17:17:38.036Z,101791.09
2022-09-11T17:20:09.342Z,101785.59
2022-09-11T17:22:37.845Z,101790.97
2022-09-11T17:25:08.896Z,101792.94
2022-09-11T17:27:37.270Z,101785.09
2022-09-11T17:30:06.704Z,101787.84
2022-09-11T17:32:37.237Z,101796.06
2022-09-11T17:35:06.303Z,101788.16
2022-09-11T17:37:34.554Z,101789.13
2022-09-11T17:40:03.510Z,101788.22
2022-09-11T17:42:33.037Z,101779.25
2022-09-11T17:45:02.978Z,101778.34
2022-09-11T17:47:32.783Z,101779.19
2022-09-11T17:50:02.411Z,101782.69
2022-09-11T17:52:33.045Z,101778.19
2022-09-11T17:55:01.334Z,101781.69
2022-09-11T17:57:30.514Z,101782.41
2022-09-11T18:00:00.583Z,101775.03
2022-09-11T18:02:28.763Z,101774.84
2022-09-11T18:04:56.880Z,101783.38
2022-09-11T18:07:24.982Z,101781.16
2022-09-11T18:09:56.410Z,101779.75
2022-09-11T18:12:25.995Z,101788.13
2022-09-11T18:14:55.967Z,101779.59
2022-09-11T18:17:25.429Z,101790.56
2022-09-11T18:19:53.548Z,101789.09
2022-09-11T18:22:22.399Z,101785.03
2022-09-11T18:24:50.783Z,101793.31
2022-09-11T18:27:19.855Z,101785.63
2022-09-11T18:29:50.109Z,101796.53
2022-09-11T18:32:19.979Z,101792.31
2022-09-11T18:34:49.670Z,101785.47
2022-09-11T18:37:19.626Z,101791.94
2022-09-11T18:39:48.292Z,101793.03
2022-09-11T18:42:17.994Z,101796.78
2022-09-11T18:44:46.433Z,101798.66
2022-09-11T18:47:14.570Z,101798.88
2022-09-11T18:49:43.692Z,101801.69
2022-09-11T18:52:14.584Z,101805.44
2022-09-11T18:54:42.642Z,101812.69
2022-09-11T18:57:10.755Z,101806.59
2022-09-11T18:59:39.467Z,101804.97
2022-09-11T19:02:08.211Z,101806.91
2022-09-11T19:04:36.423Z,101795.63
2022-09-11T19:07:05.005Z,101811.84
2022-09-11T19:09:35.207Z,101805.81
2022-09-11T19:12:05.385Z,101804.31
2022-09-11T19:14:35.893Z,101807.22
2022-09-11T19:17:04.302Z,101814.50
2022-09-11T19:19:32.741Z,101801.38
2022-09-11T19:22:00.921Z,101807.75
2022-09-11T19:24:30.049Z,101814.13
2022-09-11T19:27:00.394Z,101808.06
2022-09-11T19:29:28.725Z,101802.00
2022-09-11T19:31:56.827Z,101811.03
2022-09-11T19:34:24.951Z,101807.59
2022-09-11T19:36:53.299Z,101806.88
2022-09-11T19:39:21.824Z,101813.22
2022-09-11T19:41:50.156Z,101799.16
2022-09-11T19:44:20.086Z,101803.66
2022-09-11T19:46:49.890Z,101807.28
2022-09-11T19:49:18.128Z,101808.16
2022-09-11T19:51:46.688Z,101814.38
2022-09-11T19:54:15.515Z,101809.97
2022-09-11T19:56:45.125Z,101805.56
2022-09-11T19:59:14.404Z,101808.22
2022-09-11T20:01:47.410Z,101810.03
2022-09-11T20:04:17.648Z,101811.84
2022-09-11T20:09:30.282Z,101804.06
2022-09-11T20:12:00.703Z,101810.44
2022-09-11T20:14:29.569Z,101815.00
2022-09-11T20:17:00.903Z,101808.97
2022-09-11T20:19:29.668Z,101809.09
2022-09-11T20:21:57.928Z,101814.53
2022-09-11T20:24:26.615Z,101812.91
2022-09-11T20:26:55.128Z,101817.44
2022-09-11T20:29:23.396Z,101808.69
2022-09-11T20:31:53.442Z,101813.22
2022-09-11T20:34:27.801Z,101810.66
2022-09-11T20:36:56.958Z,101814.31
2022-09-11T20:39:25.039Z,101819.66
2022-09-11T20:41:53.095Z,101818.84
2022-09-11T20:44:21.143Z,101818.00
2022-09-11T20:46:49.206Z,101823.38
2022-09-11T20:49:17.471Z,101811.06
2022-09-11T20:51:46.870Z,101819.09
2022-09-11T20:54:15.598Z,101817.41
2022-09-11T20:56:44.425Z,101817.50
2022-09-11T20:59:12.578Z,101814.03
2022-09-11T21:01:40.946Z,101814.91
2022-09-11T21:04:09.042Z,101811.44
2022-09-11T21:06:37.279Z,101810.59
2022-09-11T21:09:09.598Z,101809.72
2022-09-11T21:11:39.204Z,101806.22
2022-09-11T21:14:07.826Z,101814.25
2022-09-11T21:16:36.324Z,101811.59
2022-09-11T21:19:06.049Z,101801.94
2022-09-11T21:21:37.735Z,101799.31
2022-09-11T21:24:11.302Z,101803.81
2022-09-11T21:26:39.659Z,101803.88
2022-09-11T21:29:10.424Z,101795.06
2022-09-11T21:31:38.565Z,101792.47
2022-09-11T21:34:07.256Z,101796.03
2022-09-11T21:36:36.989Z,101796.97
2022-09-11T21:39:06.939Z,101790.81
2022-09-11T21:41:35.061Z,101800.56
2022-09-11T21:44:03.728Z,101791.78
2022-09-11T21:46:32.017Z,101796.22
2022-09-11T21:49:00.269Z,101788.34
2022-09-11T21:51:28.554Z,101788.44
2022-09-11T21:54:01.388Z,101785.84
2022-09-11T21:56:33.416Z,101788.53
2022-09-11T21:59:02.426Z,101787.66
2022-09-11T22:01:32.050Z,101791.25
2022-09-11T22:04:01.401Z,101791.28
2022-09-11T22:06:31.215Z,101788.69
2022-09-11T22:09:00.455Z,101794.91
2022-09-11T22:11:30.367Z,101795.81
2022-09-11T22:13:58.467Z,101796.72
2022-09-11T22:16:26.639Z,101788.84
2022-09-11T22:18:57.087Z,101791.50
2022-09-11T22:21:25.564Z,101794.25
2022-09-11T22:23:54.113Z,101797.78
2022-09-11T22:26:24.035Z,101794.28
2022-09-11T22:28:53.787Z,101786.38
2022-09-11T22:31:24.682Z,101785.50
2022-09-11T22:33:53.717Z,101782.03
2022-09-11T22:36:25.154Z,101790.00
2022-09-11T22:38:53.693Z,101783.81
2022-09-11T22:41:22.954Z,101789.16
2022-09-11T22:43:51.160Z,101790.91
2022-09-11T22:46:22.205Z,101789.19
2022-09-11T22:48:50.785Z,101786.56
2022-09-11T22:51:18.876Z,101790.13
2022-09-11T22:53:47.227Z,101793.66
2022-09-11T22:56:17.640Z,101791.94
2022-09-11T22:58:45.847Z,101786.63
2022-09-11T23:01:21.049Z,101791.97
2022-09-11T23:03:53.561Z,101786.69
2022-09-11T23:06:39.636Z,101784.09
2022-09-11T23:09:10.079Z,101783.22
2022-09-11T23:11:38.171Z,101774.44
2022-09-11T23:14:11.865Z,101784.13
2022-09-11T23:16:42.433Z,101779.75
2022-09-11T23:19:14.913Z,101770.94
2022-09-11T23:21:43.389Z,101770.97
2022-09-11T23:24:14.510Z,101764.84
2022-09-11T23:26:43.315Z,101763.97
2022-09-11T23:29:11.968Z,101763.09
2022-09-11T23:31:41.232Z,101770.13
2022-09-11T23:34:15.379Z,101761.38
2022-09-11T23:36:44.374Z,101750.78
2022-09-11T23:39:12.490Z,101756.09
2022-09-11T23:41:40.816Z,101751.72
2022-09-11T23:44:08.894Z,101757.91
2022-09-11T23:46:37.070Z,101760.53
2022-09-11T23:49:06.277Z,101755.25
2022-09-11T23:51:35.735Z,101758.78
2022-09-11T23:54:03.866Z,101744.72
2022-09-11T23:56:31.899Z,101748.25
2022-09-11T23:59:00.140Z,101754.44
